Time;durP1;ratioP1;P1;durP2;ratioP2;P2;SDS_P1;SDS_P2;PMS_P1;PMS_P2;Temp;Humidity;BMP_temperature;BMP_pressure;BME280_temperature;BME280_humidity;BME280_pressure;Samples;Min_cycle;Max_cycle;Signal;HPM_P1;HPM_P2
2023/08/14 00:04:02;;;;;;;13.25;7.65;;;;;;;16.86;72.75;101243.13;1675882;83;21255;-55
2023/08/14 00:07:07;;;;;;;11.28;7.55;;;;;;;16.86;72.87;101245.02;1676445;81;21252;-55
2023/08/14 00:12:41;;;;;;;15.63;7.80;;;;;;;16.79;72.93;101242.17;1675330;82;21222;-55
2023/08/14 00:20:46;;;;;;;10.85;8.05;;;;;;;16.73;73.18;101249.05;1677072;82;21899;-54
2023/08/14 00:23:52;;;;;;;10.75;7.37;;;;;;;16.74;73.31;101257.66;1675446;81;21229;-53
2023/08/14 00:31:55;;;;;;;14.70;7.70;;;;;;;16.72;73.59;101253.70;1653678;81;21256;-55
2023/08/14 00:35:02;;;;;;;11.57;7.60;;;;;;;16.72;73.59;101256.47;1649318;82;21255;-56
2023/08/14 00:43:07;;;;;;;12.45;7.47;;;;;;;16.69;73.84;101250.47;1671988;83;21875;-55
2023/08/14 00:46:14;;;;;;;10.75;7.22;;;;;;;16.68;73.92;101249.59;1669859;82;21227;-55
2023/08/14 00:51:49;;;;;;;12.35;7.28;;;;;;;16.67;74.13;101248.41;1673763;81;21750;-55
2023/08/14 00:57:25;;;;;;;11.95;7.78;;;;;;;16.62;74.08;101249.55;1628963;82;21253;-56
2023/08/14 01:05:31;;;;;;;9.78;7.20;;;;;;;16.55;74.15;101243.93;1677422;82;21394;-54
2023/08/14 01:08:37;;;;;;;8.38;6.72;;;;;;;16.55;74.27;101244.45;1678120;81;21232;-55
2023/08/14 01:16:45;;;;;;;8.80;6.40;;;;;;;16.54;74.51;101244.13;1669894;81;21240;-55
2023/08/14 01:19:46;;;;;;;9.95;7.20;;;;;;;16.52;74.52;101251.75;1668975;81;21918;-55
2023/08/14 01:27:50;;;;;;;9.70;6.58;;;;;;;16.41;74.49;101247.55;1681360;81;21389;-55
2023/08/14 01:33:26;;;;;;;7.60;6.33;;;;;;;16.37;74.66;101244.30;1681625;81;21291;-56
2023/08/14 01:39:19;;;;;;;9.48;6.28;;;;;;;16.31;74.65;101253.37;1678482;81;21446;-56
2023/08/14 01:42:41;;;;;;;10.10;6.65;;;;;;;16.31;74.73;101257.52;1675874;82;21350;-56
2023/08/14 01:45:46;;;;;;;11.68;6.45;;;;;;;16.28;74.85;101256.48;1682677;81;21232;-56
2023/08/14 01:48:55;;;;;;;10.40;6.90;;;;;;;16.28;75.01;101262.02;1674957;82;21995;-56
2023/08/14 01:52:01;;;;;;;12.10;6.75;;;;;;;16.29;75.16;101263.75;1677652;81;21918;-54
2023/08/14 01:55:08;;;;;;;9.63;6.83;;;;;;;16.26;75.16;101266.03;1674684;80;21288;-55
2023/08/14 02:00:43;;;;;;;13.43;6.80;;;;;;;16.20;75.11;101267.67;1682183;81;21240;-55
2023/08/14 02:06:18;;;;;;;12.95;7.50;;;;;;;16.18;75.35;101267.50;1673931;82;21294;-55
2023/08/14 02:11:54;;;;;;;16.97;7.12;;;;;;;16.18;75.51;101271.14;1674315;81;21299;-55
2023/08/14 02:17:29;;;;;;;10.58;7.15;;;;;;;16.13;75.47;101270.84;1676968;82;21400;-54
2023/08/14 02:20:35;;;;;;;11.83;7.83;;;;;;;16.12;75.49;101268.27;1685679;81;21864;-54
2023/08/14 02:23:42;;;;;;;11.18;7.95;;;;;;;16.10;75.53;101267.59;1674033;82;21229;-54
2023/08/14 02:29:16;;;;;;;15.72;7.62;;;;;;;16.05;75.65;101269.55;1677947;82;21373;-55
2023/08/14 02:34:57;;;;;;;13.88;8.45;;;;;;;16.05;75.82;101275.08;1668123;82;21255;-55
2023/08/14 02:38:01;;;;;;;14.20;8.58;;;;;;;16.06;75.94;101282.30;1680160;81;21430;-56
2023/08/14 02:40:46;;;;;;;12.95;7.78;;;;;;;16.07;75.98;101277.64;1672203;82;21742;-56
2023/08/14 02:46:20;;;;;;;21.62;8.23;;;;;;;16.02;75.95;101275.97;1679025;81;21244;-55
2023/08/14 02:49:26;;;;;;;12.40;7.97;;;;;;;16.00;75.91;101282.20;1675313;82;21272;-56
2023/08/14 02:52:31;;;;;;;15.98;8.55;;;;;;;15.99;75.97;101293.80;1678082;81;21889;-55
2023/08/14 02:55:38;;;;;;;14.90;7.67;;;;;;;16.00;76.13;101284.45;1675903;82;21256;-56
2023/08/14 03:03:42;;;;;;;15.18;8.35;;;;;;;16.07;76.41;101296.98;1622901;83;21458;-55
2023/08/14 03:09:19;;;;;;;15.95;8.23;;;;;;;16.11;76.59;101301.10;1675610;81;21252;-55
2023/08/14 03:14:53;;;;;;;13.85;8.00;;;;;;;16.18;76.76;101304.29;1676795;81;21777;-56
2023/08/14 03:20:28;;;;;;;12.75;8.18;;;;;;;16.22;76.91;101308.37;1674129;81;21294;-56
2023/08/14 03:23:34;;;;;;;14.43;7.83;;;;;;;16.26;76.96;101308.34;1675005;81;21304;-56
2023/08/14 03:29:07;;;;;;;15.43;7.67;;;;;;;16.33;77.03;101313.97;1658528;83;21386;-56
2023/08/14 03:34:43;;;;;;;11.73;7.12;;;;;;;16.39;77.22;101309.89;1673151;81;21799;-56
2023/08/14 03:40:19;;;;;;;12.03;6.92;;;;;;;16.49;77.42;101308.80;1677580;81;21756;-56
2023/08/14 03:43:23;;;;;;;16.05;8.45;;;;;;;16.54;77.50;101314.62;1679598;81;21265;-56
2023/08/14 03:48:58;;;;;;;10.55;7.45;;;;;;;16.67;77.61;101307.86;1625432;82;21741;-55
2023/08/14 03:54:34;;;;;;;13.88;9.18;;;;;;;16.80;77.80;101310.29;1682108;81;21245;-55
2023/08/14 04:00:10;;;;;;;12.80;9.45;;;;;;;16.94;77.95;101312.67;1684562;81;21434;-56
2023/08/14 05:47:36;;;;;;;11.08;7.97;;;;;;;20.04;79.71;101336.72;1650092;81;21781;-59
2023/08/14 05:50:42;;;;;;;12.50;8.23;;;;;;;20.22;79.83;101337.50;1689232;79;21243;-58
2023/08/14 05:53:48;;;;;;;17.12;9.13;;;;;;;20.33;79.89;101334.06;1692349;80;21267;-58
2023/08/14 05:59:24;;;;;;;10.20;8.05;;;;;;;20.57;80.01;101351.47;1649201;81;21208;-58
2023/08/14 06:02:30;;;;;;;11.45;7.40;;;;;;;20.65;80.02;101343.75;1704802;79;21909;-59
2023/08/14 06:05:36;;;;;;;9.65;8.58;;;;;;;20.76;79.98;101354.73;1710587;80;21361;-59
2023/08/14 06:11:12;;;;;;;11.00;8.33;;;;;;;21.00;80.06;101351.27;1687468;80;21239;-60
2023/08/14 06:14:19;;;;;;;10.55;7.50;;;;;;;21.10;80.04;101350.27;1699538;81;21232;-59
2023/08/14 06:19:55;;;;;;;10.48;8.28;;;;;;;21.31;79.92;101349.09;1693885;82;21808;-58
2023/08/14 06:25:31;;;;;;;8.85;6.95;;;;;;;21.49;79.82;101352.84;1691317;80;21268;-60
2023/08/14 06:31:09;;;;;;;10.32;6.97;;;;;;;21.66;79.71;101352.62;1699865;80;21781;-59
2023/08/14 06:36:46;;;;;;;9.93;7.53;;;;;;;21.83;79.56;101359.42;1689696;80;21244;-59
2023/08/14 06:42:20;;;;;;;8.85;7.05;;;;;;;21.99;79.42;101363.02;1692753;82;21318;-60
2023/08/14 06:47:56;;;;;;;8.13;6.72;;;;;;;22.16;79.29;101356.36;1703846;81;21230;-60
2023/08/14 06:51:01;;;;;;;9.08;7.30;;;;;;;22.25;79.26;101353.58;1722478;79;21609;-57
2023/08/14 06:56:36;;;;;;;8.78;6.45;;;;;;;22.45;79.20;101361.78;1707648;80;21264;-58
2023/08/14 07:02:14;;;;;;;7.67;5.53;;;;;;;22.63;79.06;101358.50;1704260;80;21291;-56
2023/08/14 07:05:30;;;;;;;7.87;6.03;;;;;;;22.72;79.01;101369.66;1694029;79;22278;-58
2023/08/14 07:08:36;;;;;;;9.10;5.90;;;;;;;22.82;78.87;101368.59;1687477;82;21264;-58
2023/08/14 07:11:43;;;;;;;8.70;5.85;;;;;;;22.92;78.79;101370.85;1691251;79;21235;-58
2023/08/14 07:14:49;;;;;;;7.58;5.67;;;;;;;23.02;78.65;101376.76;1697262;81;21386;-59
2023/08/14 07:20:26;;;;;;;7.00;5.22;;;;;;;23.17;78.34;101371.08;1640822;81;21298;-57
2023/08/14 07:23:36;;;;;;;7.10;5.03;;;;;;;23.24;78.26;101364.88;1679387;79;21319;-58
2023/08/14 07:26:24;;;;;;;5.78;4.90;;;;;;;23.34;78.08;101375.53;1699110;79;21245;-60
2023/08/14 07:32:00;;;;;;;12.53;5.20;;;;;;;23.48;77.84;101372.86;1700614;80;21295;-59
2023/08/14 07:35:06;;;;;;;7.17;4.72;;;;;;;23.55;77.78;101369.41;1700647;81;21223;-56
2023/08/14 07:38:12;;;;;;;6.33;5.08;;;;;;;23.64;77.60;101379.20;1708469;78;21738;-56
2023/08/14 07:43:50;;;;;;;6.50;4.90;;;;;;;23.81;77.35;101370.44;1695177;81;21448;-57
2023/08/14 07:49:26;;;;;;;7.85;4.97;;;;;;;23.96;77.15;101376.99;1692247;78;21268;-58
2023/08/14 07:55:04;;;;;;;13.38;4.92;;;;;;;24.07;76.83;101370.03;1708704;79;21240;-57
2023/08/14 08:00:40;;;;;;;8.48;4.58;;;;;;;24.21;76.50;101375.75;1689577;79;21262;-57
2023/08/14 08:06:14;;;;;;;5.45;4.70;;;;;;;24.38;76.20;101382.33;1694022;80;21311;-57
2023/08/14 08:09:21;;;;;;;9.53;4.58;;;;;;;24.44;76.02;101375.76;1704578;80;21293;-57
2023/08/14 08:14:56;;;;;;;10.43;4.53;;;;;;;24.61;75.63;101371.70;1712449;80;21188;-56
2023/08/14 08:20:33;;;;;;;6.30;4.10;;;;;;;24.70;75.14;101365.52;1698643;80;21604;-57
2023/08/14 08:26:06;;;;;;;6.85;4.72;;;;;;;24.85;74.74;101371.99;1685837;78;21243;-56
2023/08/14 08:31:43;;;;;;;5.45;4.58;;;;;;;25.01;74.34;101374.05;1710615;80;21303;-57
2023/08/14 08:34:49;;;;;;;5.85;5.03;;;;;;;25.06;74.09;101369.96;1690411;80;21792;-58
2023/08/14 08:40:25;;;;;;;6.40;4.72;;;;;;;25.19;73.69;101371.63;1684892;81;21236;-57
2023/08/14 08:46:01;;;;;;;7.35;4.87;;;;;;;25.34;73.32;101374.81;1647291;82;21877;-57
2023/08/14 08:51:38;;;;;;;6.25;4.08;;;;;;;25.45;72.92;101369.71;1709878;79;21832;-56
2023/08/14 08:57:16;;;;;;;6.28;4.30;;;;;;;25.56;72.31;101374.42;1708360;79;21227;-58
2023/08/14 09:02:52;;;;;;;6.47;4.33;;;;;;;25.65;71.72;101365.36;1705328;80;21272;-56
2023/08/14 09:08:28;;;;;;;5.67;3.83;;;;;;;25.77;71.35;101369.48;1668314;80;21227;-60
2023/08/14 09:14:04;;;;;;;6.92;4.05;;;;;;;25.89;70.69;101369.75;1686347;80;21204;-58
2023/08/14 09:17:12;;;;;;;9.43;4.47;;;;;;;25.93;70.32;101374.28;1691306;79;21507;-57
2023/08/14 09:20:19;;;;;;;6.65;4.20;;;;;;;25.99;70.09;101373.30;1689435;79;21271;-56
2023/08/14 09:23:27;;;;;;;7.22;3.65;;;;;;;26.06;69.85;101370.66;1719403;79;21789;-56
2023/08/14 09:26:34;;;;;;;8.45;3.87;;;;;;;26.12;69.48;101372.45;1643479;82;21222;-57
2023/08/14 09:29:39;;;;;;;7.85;4.10;;;;;;;26.15;69.06;101374.73;1681294;80;21291;-56
2023/08/14 09:32:45;;;;;;;5.72;3.67;;;;;;;26.19;68.75;101375.09;1669756;82;21748;-57
2023/08/14 09:40:51;;;;;;;5.85;3.20;;;;;;;26.37;67.86;101374.27;1720864;79;21380;-58
2023/08/14 09:43:58;;;;;;;5.10;3.40;;;;;;;26.43;67.56;101374.65;1712756;78;21361;-57
2023/08/14 09:49:35;;;;;;;5.80;4.00;;;;;;;26.56;66.75;101372.63;1672300;80;21248;-57
2023/08/14 09:55:13;;;;;;;6.05;3.67;;;;;;;26.69;66.19;101376.52;1703162;79;21295;-57
2023/08/14 09:58:24;;;;;;;7.65;3.50;;;;;;;26.73;65.89;101368.72;1690846;80;21248;-57
2023/08/14 10:06:33;;;;;;;9.25;4.67;;;;;;;26.91;64.94;101379.64;1710982;79;21217;-61
2023/08/14 10:12:12;;;;;;;7.75;4.05;;;;;;;27.02;64.34;101373.06;1690949;81;21255;-57
2023/08/14 10:20:18;;;;;;;7.55;4.22;;;;;;;27.19;63.45;101375.83;1706761;80;21223;-55
2023/08/14 10:25:53;;;;;;;9.53;4.20;;;;;;;27.27;62.81;101372.05;1699706;80;21706;-56
2023/08/14 10:31:35;;;;;;;8.25;4.80;;;;;;;27.35;62.30;101378.59;1712433;79;21402;-51
2023/08/14 10:34:42;;;;;;;5.78;4.60;;;;;;;27.38;62.11;101373.02;1698245;79;21204;-54
2023/08/14 10:37:38;;;;;;;5.33;4.05;;;;;;;27.41;61.92;101366.32;1708875;80;21474;-53
2023/08/14 10:43:10;;;;;;;7.25;4.37;;;;;;;27.56;61.56;101366.48;1708315;80;21302;-53
2023/08/14 10:46:24;;;;;;;9.08;4.33;;;;;;;27.63;61.32;101369.09;1681364;79;22891;-53
2023/08/14 10:52:02;;;;;;;7.15;4.72;;;;;;;27.74;60.90;101356.28;1695705;80;21248;-53
2023/08/14 11:00:09;;;;;;;6.28;4.72;;;;;;;27.94;60.16;101352.84;1637045;83;21322;-53
2023/08/14 11:05:47;;;;;;;7.72;4.30;;;;;;;28.11;59.81;101352.73;1696100;80;21289;-55
2023/08/14 11:11:22;;;;;;;5.80;3.80;;;;;;;28.23;59.28;101345.80;1685276;80;21326;-55
2023/08/14 11:16:58;;;;;;;11.80;4.30;;;;;;;28.42;58.76;101349.91;1704708;80;21548;-56
2023/08/14 11:22:33;;;;;;;7.53;4.20;;;;;;;28.62;58.33;101340.80;1677283;79;21250;-54
2023/08/14 11:28:09;;;;;;;9.08;3.72;;;;;;;28.84;57.95;101330.22;1665187;80;21212;-54
2023/08/14 11:31:15;;;;;;;6.50;4.12;;;;;;;28.93;57.67;101346.34;1644695;83;21292;-55
2023/08/14 11:37:07;;;;;;;5.00;3.35;;;;;;;28.92;56.87;101332.52;1685284;80;21204;-54
2023/08/14 11:40:16;;;;;;;6.37;3.50;;;;;;;28.94;56.42;101337.30;1681357;82;21249;-55
2023/08/14 11:43:22;;;;;;;4.58;3.15;;;;;;;28.97;56.22;101329.73;1658843;80;21808;-54
2023/08/14 11:46:28;;;;;;;4.15;2.95;;;;;;;29.07;56.04;101329.80;1697431;80;21329;-55
2023/08/14 11:52:04;;;;;;;4.50;3.22;;;;;;;29.18;55.30;101317.44;1703244;80;21335;-55
2023/08/14 11:57:41;;;;;;;4.50;2.90;;;;;;;29.18;54.37;101326.76;1707127;80;21276;-55
2023/08/14 12:03:17;;;;;;;4.62;2.92;;;;;;;29.17;53.75;101329.30;1677793;82;21299;-54
2023/08/14 12:08:51;;;;;;;5.22;3.10;;;;;;;29.10;53.02;101325.02;1703606;82;21307;-54
2023/08/14 12:14:26;;;;;;;4.35;3.20;;;;;;;28.99;52.22;101319.01;1680718;81;21267;-54
2023/08/14 12:20:10;;;;;;;4.25;2.83;;;;;;;28.88;51.56;101320.08;1690479;80;21229;-56
2023/08/14 12:23:23;;;;;;;4.60;3.10;;;;;;;28.88;51.56;101320.08;1698867;79;21293;-56
2023/08/14 12:26:28;;;;;;;5.05;3.08;;;;;;;28.85;51.16;101317.81;1710834;80;21286;-54
2023/08/14 12:29:33;;;;;;;5.92;3.83;;;;;;;28.83;50.93;101320.05;1706408;80;21263;-54
2023/08/14 12:32:39;;;;;;;5.85;3.83;;;;;;;28.75;50.58;101312.10;1686464;83;21232;-55
2023/08/14 12:38:11;;;;;;;6.45;3.47;;;;;;;28.68;50.14;101302.51;1698777;81;21243;-56
2023/08/14 12:41:17;;;;;;;5.37;2.58;;;;;;;28.67;49.93;101305.59;1711557;80;22120;-55
2023/08/14 12:44:23;;;;;;;4.70;2.92;;;;;;;28.67;49.85;101311.23;1694461;81;21264;-54
2023/08/14 12:49:57;;;;;;;5.00;3.00;;;;;;;28.68;49.50;101301.65;1715025;79;21296;-55
2023/08/14 12:55:34;;;;;;;7.75;3.25;;;;;;;28.66;49.02;101301.92;1707443;81;21224;-54
2023/08/14 13:01:10;;;;;;;4.08;3.02;;;;;;;28.63;49.19;101297.38;1704538;80;21231;-54
2023/08/14 13:09:17;;;;;;;5.58;2.75;;;;;;;28.63;48.33;101298.24;1708598;80;21196;-54
2023/08/14 13:14:54;;;;;;;5.22;3.17;;;;;;;28.63;48.15;101294.56;1699717;79;21271;-54
2023/08/14 13:23:03;;;;;;;7.65;4.65;;;;;;;28.69;47.78;101293.47;1702749;79;21222;-56
2023/08/14 13:28:39;;;;;;;4.17;3.25;;;;;;;28.61;47.25;101286.94;1706413;79;21272;-56
2023/08/14 13:34:15;;;;;;;5.05;3.35;;;;;;;28.63;47.30;101298.80;1685105;79;21857;-56
2023/08/14 13:37:22;;;;;;;4.58;3.08;;;;;;;28.60;47.25;101293.70;1703777;78;21799;-55
2023/08/14 13:42:57;;;;;;;5.78;2.92;;;;;;;28.67;47.18;101288.69;1700732;80;21253;-55
2023/08/14 13:46:02;;;;;;;4.28;2.92;;;;;;;28.67;47.18;101288.69;1701896;80;21264;-55
2023/08/14 13:51:39;;;;;;;4.50;3.22;;;;;;;28.68;47.06;101280.51;1675253;79;21299;-56
2023/08/14 13:57:13;;;;;;;4.12;2.40;;;;;;;28.70;46.64;101278.27;1699177;82;21520;-55
2023/08/14 14:02:49;;;;;;;5.80;2.60;;;;;;;28.74;46.38;101276.59;1699408;80;22068;-56
2023/08/14 14:05:55;;;;;;;3.75;2.60;;;;;;;28.75;46.29;101272.63;1680313;82;21219;-57
2023/08/14 14:11:29;;;;;;;5.15;3.30;;;;;;;28.76;45.73;101264.48;1725313;79;22072;-56
2023/08/14 14:17:08;;;;;;;6.17;2.42;;;;;;;28.71;45.88;101261.09;1687185;81;21225;-57
2023/08/14 14:22:34;;;;;;;4.87;2.83;;;;;;;28.72;45.88;101264.73;1729072;78;21207;-57
2023/08/14 14:25:42;;;;;;;3.58;2.55;;;;;;;28.69;45.84;101264.73;1706668;81;21619;-56
2023/08/14 14:28:47;;;;;;;3.65;2.67;;;;;;;28.71;45.75;101268.69;1691547;80;21248;-56
2023/08/14 14:31:53;;;;;;;6.47;3.05;;;;;;;28.70;45.67;101261.36;1699241;81;21331;-55
2023/08/14 14:37:28;;;;;;;7.55;2.92;;;;;;;28.68;45.54;101260.78;1704471;79;21226;-56
2023/08/14 14:43:02;;;;;;;4.05;2.90;;;;;;;28.66;45.56;101261.61;1707786;80;21271;-57
2023/08/14 14:46:08;;;;;;;6.53;2.80;;;;;;;28.63;45.56;101255.97;1671789;80;21245;-57
2023/08/14 14:51:42;;;;;;;4.25;3.02;;;;;;;28.63;45.81;101250.88;1679251;81;21767;-56
2023/08/14 14:54:48;;;;;;;6.17;2.80;;;;;;;28.63;45.81;101250.88;1657803;83;21283;-57
2023/08/14 15:00:25;;;;;;;4.65;2.95;;;;;;;28.80;45.44;101259.98;1675750;81;21234;-56
2023/08/14 15:06:00;;;;;;;6.97;3.02;;;;;;;28.73;45.23;101265.04;1706141;79;21286;-57
2023/08/14 15:11:35;;;;;;;4.87;3.22;;;;;;;28.62;45.59;101266.11;1696849;82;21267;-57
2023/08/14 15:19:40;;;;;;;4.75;2.85;;;;;;;28.57;45.36;101267.48;1705311;78;21403;-56
2023/08/14 15:25:17;;;;;;;4.55;2.35;;;;;;;28.50;45.31;101269.68;1682185;81;21236;-57
2023/08/14 15:30:52;;;;;;;7.25;3.22;;;;;;;28.47;45.34;101261.74;1689372;81;21409;-56
2023/08/14 15:36:31;;;;;;;4.33;2.70;;;;;;;28.55;45.31;101266.90;1680955;81;22310;-56
2023/08/14 15:42:06;;;;;;;7.28;3.10;;;;;;;28.53;45.53;101262.09;1669009;80;21242;-56
2023/08/14 15:47:42;;;;;;;5.17;3.02;;;;;;;28.46;45.39;101272.73;1705275;80;21272;-57
2023/08/14 15:53:18;;;;;;;4.97;3.02;;;;;;;28.32;45.58;101266.70;1677849;80;21986;-56
2023/08/14 15:58:54;;;;;;;3.90;2.42;;;;;;;28.33;45.80;101265.61;1695332;80;22993;-56
2023/08/14 16:02:02;;;;;;;4.35;2.58;;;;;;;28.45;45.67;101265.38;1719070;81;21226;-56
2023/08/14 16:07:45;;;;;;;5.15;2.80;;;;;;;28.55;45.65;101262.67;1707685;81;21384;-56
2023/08/14 16:10:51;;;;;;;5.30;2.85;;;;;;;28.44;45.69;101267.37;1738300;80;21242;-57
2023/08/14 16:13:57;;;;;;;5.42;2.92;;;;;;;28.27;45.78;101263.88;1718106;80;21227;-58
2023/08/14 16:19:35;;;;;;;4.75;2.65;;;;;;;27.99;46.09;101267.02;1655840;80;21890;-57
2023/08/14 16:22:40;;;;;;;6.62;2.95;;;;;;;27.88;46.23;101268.05;1671717;81;21245;-56
2023/08/14 16:28:15;;;;;;;10.48;3.65;;;;;;;27.60;46.53;101264.97;1698961;80;21275;-56
2023/08/14 16:31:22;;;;;;;6.80;3.47;;;;;;;27.49;46.66;101270.20;1696593;80;21223;-57
2023/08/14 16:34:28;;;;;;;7.30;3.25;;;;;;;27.32;46.82;101268.02;1675316;81;21280;-57
2023/08/14 16:40:05;;;;;;;7.72;3.42;;;;;;;27.04;47.33;101280.87;1682870;80;21275;-58
2023/08/14 16:43:12;;;;;;;11.33;3.62;;;;;;;26.93;47.58;101284.67;1694859;79;21331;-57
2023/08/14 16:48:48;;;;;;;7.30;3.85;;;;;;;26.62;48.22;101281.14;1706957;78;21266;-57
2023/08/14 16:54:26;;;;;;;8.78;4.47;;;;;;;26.33;48.81;101288.00;1703174;79;21241;-57
2023/08/14 17:02:34;;;;;;;9.53;4.20;;;;;;;25.92;49.74;101300.49;1687879;80;21241;-56
2023/08/14 17:08:10;;;;;;;13.85;5.00;;;;;;;25.63;50.43;101304.98;1676530;81;21248;-57
2023/08/14 17:13:46;;;;;;;13.43;4.87;;;;;;;25.36;51.07;101309.50;1650684;81;21283;-59
2023/08/14 17:19:24;;;;;;;9.50;4.80;;;;;;;25.05;51.73;101315.85;1654710;81;21430;-57
2023/08/14 17:24:58;;;;;;;11.35;5.37;;;;;;;24.79;52.33;101322.02;1664285;80;21764;-57
2023/08/14 17:28:03;;;;;;;13.55;5.45;;;;;;;24.68;52.61;101324.29;1674029;81;21405;-57
2023/08/14 17:36:08;;;;;;;14.15;5.67;;;;;;;24.33;53.74;101330.41;1699040;80;21253;-57
2023/08/14 17:41:45;;;;;;;19.32;8.45;;;;;;;24.11;54.25;101341.89;1682239;83;21467;-57
2023/08/14 17:47:22;;;;;;;19.67;11.22;;;;;;;23.88;54.78;101340.97;1675626;82;21390;-57
2023/08/14 17:52:59;;;;;;;17.20;10.58;;;;;;;23.66;55.35;101342.61;1695898;81;21394;-57
2023/08/14 17:58:35;;;;;;;19.57;11.28;;;;;;;23.43;55.91;101347.02;1723151;78;21854;-57
2023/08/14 18:01:42;;;;;;;14.28;9.30;;;;;;;23.34;56.15;101346.19;1736254;78;21373;-56
2023/08/14 18:07:18;;;;;;;21.25;10.18;;;;;;;23.15;56.91;101346.70;1742953;79;21370;-56
2023/08/14 18:12:54;;;;;;;15.70;8.50;;;;;;;23.01;57.46;101350.75;1716304;81;21252;-58
2023/08/14 18:18:30;;;;;;;16.77;8.68;;;;;;;22.88;57.89;101351.47;1685241;80;21255;-58
2023/08/14 18:24:07;;;;;;;10.88;7.90;;;;;;;22.71;58.32;101350.35;1710070;80;21265;-58
2023/08/14 18:29:43;;;;;;;17.82;8.40;;;;;;;22.54;58.63;101352.05;1706540;81;22155;-56
2023/08/14 18:32:50;;;;;;;12.93;7.90;;;;;;;22.46;58.82;101353.70;1701564;80;21255;-56
2023/08/14 18:38:25;;;;;;;14.65;8.68;;;;;;;22.29;59.40;101359.56;1696429;80;21240;-57
2023/08/14 18:46:31;;;;;;;18.52;8.40;;;;;;;22.10;60.06;101367.03;1698171;82;21259;-57
2023/08/14 18:52:08;;;;;;;18.75;9.28;;;;;;;21.98;60.48;101366.91;1705337;80;21258;-57
2023/08/14 18:57:53;;;;;;;19.55;8.55;;;;;;;21.86;60.91;101368.72;1709543;80;21363;-57
2023/08/14 19:00:53;;;;;;;16.52;9.58;;;;;;;21.82;61.09;101361.01;1697084;80;21260;-57
2023/08/14 19:06:12;;;;;;;18.42;9.18;;;;;;;21.67;61.45;101365.50;1708591;80;21177;-57
2023/08/14 19:09:20;;;;;;;24.00;9.43;;;;;;;21.62;61.67;101372.28;1713202;80;21271;-57
2023/08/14 19:12:26;;;;;;;18.55;9.13;;;;;;;21.55;61.87;101368.66;1710197;80;21244;-56
2023/08/14 19:18:01;;;;;;;15.95;9.65;;;;;;;21.44;62.34;101370.77;1702972;80;21276;-56
2023/08/14 19:23:38;;;;;;;18.57;9.40;;;;;;;21.35;62.79;101377.67;1691887;80;21331;-57
2023/08/14 19:29:14;;;;;;;18.90;9.75;;;;;;;21.26;63.18;101381.80;1685641;81;21237;-57
2023/08/14 19:34:50;;;;;;;22.65;10.13;;;;;;;21.21;63.58;101382.13;1713771;80;21245;-57
2023/08/14 19:40:25;;;;;;;19.52;9.68;;;;;;;21.10;63.81;101378.64;1710051;79;22068;-57
2023/08/14 19:46:00;;;;;;;19.23;9.98;;;;;;;21.01;64.19;101386.94;1712570;81;21402;-57
2023/08/14 19:51:34;;;;;;;16.70;10.18;;;;;;;20.93;64.57;101392.15;1712661;80;21506;-57
2023/08/14 19:57:13;;;;;;;17.45;9.10;;;;;;;20.87;64.88;101390.25;1679239;80;21299;-57
2023/08/14 20:02:52;;;;;;;14.33;8.75;;;;;;;20.76;65.15;101389.52;1709115;80;21264;-56
2023/08/14 20:08:28;;;;;;;13.00;8.33;;;;;;;20.66;65.41;101394.15;1714065;80;21363;-56
2023/08/14 20:11:26;;;;;;;14.60;8.73;;;;;;;20.62;65.50;101400.38;1704487;80;21278;-56
2023/08/14 20:17:02;;;;;;;18.73;8.48;;;;;;;20.54;65.92;101399.20;1709338;81;21264;-56
2023/08/14 20:20:08;;;;;;;12.95;7.17;;;;;;;20.51;66.03;101402.42;1711566;78;21756;-56
2023/08/14 20:28:14;;;;;;;18.17;7.58;;;;;;;20.39;66.49;101404.16;1651914;83;21292;-56
2023/08/14 20:33:49;;;;;;;11.85;7.50;;;;;;;20.29;66.69;101406.50;1704758;80;21302;-56
2023/08/14 20:39:25;;;;;;;9.50;6.92;;;;;;;20.20;66.96;101413.36;1713040;80;21382;-57
2023/08/14 20:45:01;;;;;;;12.85;7.12;;;;;;;20.12;67.23;101403.80;1713445;80;21287;-57
2023/08/14 20:50:37;;;;;;;12.65;7.17;;;;;;;20.07;67.52;101411.91;1650547;81;21626;-56
2023/08/14 20:53:43;;;;;;;16.02;7.00;;;;;;;20.03;67.63;101410.61;1695053;81;21216;-56
2023/08/14 20:56:43;;;;;;;13.22;8.13;;;;;;;19.99;67.75;101410.20;1705773;80;21216;-56
2023/08/14 21:02:16;;;;;;;10.60;7.00;;;;;;;19.94;68.00;101411.89;1705914;81;21228;-55
2023/08/14 21:05:23;;;;;;;13.32;7.50;;;;;;;19.91;68.10;101408.15;1705876;80;21271;-55
2023/08/14 21:10:58;;;;;;;11.30;7.58;;;;;;;19.85;68.40;101406.22;1703643;80;21620;-55
2023/08/14 21:19:05;;;;;;;12.58;7.85;;;;;;;19.79;68.84;101405.12;1707490;81;21451;-56
2023/08/14 21:24:40;;;;;;;11.45;7.12;;;;;;;19.77;69.17;101403.12;1703609;79;21270;-56
2023/08/14 21:30:16;;;;;;;15.32;7.10;;;;;;;19.73;69.37;101404.59;1709713;80;21206;-56
2023/08/14 21:35:55;;;;;;;12.23;7.45;;;;;;;19.69;69.64;101403.84;1710518;80;21444;-56
2023/08/14 21:44:04;;;;;;;11.08;7.62;;;;;;;19.65;69.96;101402.53;1710601;81;21794;-56
2023/08/14 21:47:10;;;;;;;11.00;7.42;;;;;;;19.62;69.98;101402.95;1711132;78;21262;-56
2023/08/14 21:52:45;;;;;;;10.82;7.75;;;;;;;19.55;70.18;101403.48;1715784;80;21231;-57
2023/08/14 21:58:20;;;;;;;10.68;6.62;;;;;;;19.49;70.33;101398.22;1709906;81;21278;-57
2023/08/14 22:03:57;;;;;;;12.30;6.55;;;;;;;19.41;70.44;101398.95;1713743;80;21364;-56
2023/08/14 22:09:32;;;;;;;7.17;6.33;;;;;;;19.33;70.61;101400.53;1713618;80;21386;-56
2023/08/14 22:12:37;;;;;;;8.10;6.62;;;;;;;19.29;70.73;101392.61;1680588;80;21253;-57
2023/08/14 22:18:09;;;;;;;13.15;6.70;;;;;;;19.24;70.99;101398.42;1679571;81;21896;-57
2023/08/14 22:23:44;;;;;;;8.53;6.35;;;;;;;19.19;71.15;101402.34;1706761;80;21239;-56
2023/08/14 22:29:18;;;;;;;8.78;7.00;;;;;;;19.13;71.38;101398.49;1714915;79;21424;-57
2023/08/14 22:34:55;;;;;;;9.70;6.62;;;;;;;19.10;71.67;101396.13;1710684;79;21271;-56
2023/08/14 22:40:30;;;;;;;8.18;6.55;;;;;;;19.04;71.76;101395.55;1709120;80;21230;-56
2023/08/14 22:46:06;;;;;;;9.75;6.50;;;;;;;19.00;71.91;101395.64;1651824;81;21248;-56
2023/08/14 22:51:41;;;;;;;8.65;6.55;;;;;;;18.95;72.03;101395.40;1690150;83;21334;-56
2023/08/14 22:57:17;;;;;;;7.28;6.30;;;;;;;18.87;72.20;101396.95;1672893;80;21795;-57
2023/08/14 23:02:51;;;;;;;9.15;6.40;;;;;;;18.82;72.38;101398.65;1672604;80;21298;-56
2023/08/14 23:08:26;;;;;;;8.38;6.25;;;;;;;18.78;72.51;101395.42;1704772;82;21774;-57
2023/08/14 23:11:33;;;;;;;9.68;6.45;;;;;;;18.75;72.56;101394.97;1702125;79;21231;-57
2023/08/14 23:14:40;;;;;;;11.73;6.22;;;;;;;18.72;72.66;101390.70;1684853;81;21308;-57
2023/08/14 23:17:24;;;;;;;8.90;6.10;;;;;;;18.69;72.75;101386.95;1655879;82;21458;-57
2023/08/14 23:20:30;;;;;;;7.22;5.78;;;;;;;18.68;72.88;101386.59;1683245;80;21370;-57
2023/08/14 23:23:36;;;;;;;8.63;6.12;;;;;;;18.67;72.99;101390.97;1671649;80;21271;-56
2023/08/14 23:26:41;;;;;;;7.83;6.45;;;;;;;18.65;73.15;101391.17;1671825;81;21249;-56
2023/08/14 23:32:16;;;;;;;9.18;6.50;;;;;;;18.64;73.38;101397.79;1708920;80;21223;-56
2023/08/14 23:37:51;;;;;;;7.83;5.83;;;;;;;18.63;73.56;101394.67;1711977;80;21276;-57
2023/08/14 23:43:27;;;;;;;7.37;5.50;;;;;;;18.60;73.60;101403.41;1684284;82;21262;-56
2023/08/14 23:49:01;;;;;;;6.72;5.90;;;;;;;18.56;73.67;101399.33;1673608;80;21441;-56
2023/08/14 23:52:07;;;;;;;6.95;6.28;;;;;;;18.54;73.70;101401.96;1704347;80;21629;-57
